Shelly Sue — SHELLY — position and weather

sailwx.info

Track history (hours):
 
Tides and Currents Weather Stations Pressure Air Temp Water Temp Dewpoint Dewpoint Depression Visibility Wind Speed Wind Dir Waves Ship Positions

Shelly Sue

Last reported at 2018-Aug-19 22:18 UTC. Time now 2018-Aug-19 23:13 UTC.
Position N 33°43' W 118°17'.

Length 19 m.

Type: Pleasure craft. MMSI: 338215311.

Date/timePositionNaut miles runAvg speedWind from/ knotsBaromVisibWave heightAir tempDewpointWater temp
2018-Aug-19 22:18N 33°43' W 118°17'0 0.0
2018-Aug-19 18:39N 33°43' W 118°17'0 0.0
2018-Aug-19 10:18N 33°43' W 118°17'0 0.0
2018-Aug-19 10:00N 33°43' W 118°17'0 0.0
2018-Aug-19 08:30N 33°43' W 118°17'0 0.0
2018-Aug-19 06:12N 33°43' W 118°17'0 0.0
2018-Aug-19 05:48N 33°43' W 118°17'0 0.0
2018-Aug-19 05:24N 33°43' W 118°17'0 0.0
2018-Aug-19 05:00N 33°43' W 118°17'0 0.0
2018-Aug-19 04:30N 33°43' W 118°17'0 0.0
2018-Aug-19 02:35N 33°43' W 118°17'0 1.9
2018-Aug-19 02:30N 33°43' W 118°17'3 6.3
2018-Aug-19 02:00N 33°43' W 118°13'4 8.1
2018-Aug-19 01:30N 33°42' W 118°08'4 7.6
2018-Aug-19 01:00N 33°40' W 118°04'3 7.1
2018-Aug-19 00:30N 33°37' W 118°02'2 3.3
2018-Aug-19 00:00N 33°37' W 117°60'4 8.8
2018-Aug-18 23:30N 33°35' W 117°55'4 8.2
2018-Aug-18 23:00N 33°36' W 117°60'5 7.9
2018-Aug-18 22:22N 33°37' W 118°05'4 9.6
2018-Aug-18 22:00N 33°39' W 118°09'5 9.9
2018-Aug-18 21:30N 33°39' W 118°15'3 6.5
2018-Aug-18 20:59N 33°43' W 118°15'2 0.8
2018-Aug-18 18:56N 33°43' W 118°17'0 0.0
2018-Aug-18 16:56N 33°43' W 118°17'0 0.0
2018-Aug-18 16:08N 33°43' W 118°17'0 0.0
2018-Aug-18 15:56N 33°43' W 118°17'0 0.0
2018-Aug-18 15:20N 33°43' W 118°17'0 0.0
2018-Aug-18 14:50N 33°43' W 118°17'0 0.0
2018-Aug-18 13:44N 33°43' W 118°17'0 0.0
2018-Aug-18 12:08N 33°43' W 118°17'0 0.0
2018-Aug-18 11:56N 33°43' W 118°17'0 0.0
2018-Aug-18 11:20N 33°43' W 118°17'0 0.0
2018-Aug-18 07:56N 33°43' W 118°17'0 0.0
2018-Aug-18 02:56N 33°43' W 118°17'0 0.0
2018-Aug-18 01:20N 33°43' W 118°17'0 0.0
2018-Aug-17 23:35N 33°43' W 118°17'0 0.0
2018-Aug-17 23:23N 33°43' W 118°17'0 0.0
2018-Aug-17 19:26N 33°43' W 118°17'0 0.0
2018-Aug-17 18:53N 33°43' W 118°17'0 0.0
2018-Aug-17 18:08N 33°43' W 118°17'0 0.0
2018-Aug-17 17:50N 33°43' W 118°17'0 0.0
2018-Aug-17 17:23N 33°43' W 118°17'0 0.0
2018-Aug-17 16:44N 33°43' W 118°17'0 0.0
2018-Aug-17 16:11N 33°43' W 118°17'0 0.0
2018-Aug-17 15:50N 33°43' W 118°17'0 0.0
2018-Aug-17 13:56N 33°43' W 118°17'0 0.0
2018-Aug-17 13:08N 33°43' W 118°17'0 0.0
2018-Aug-17 12:56N 33°43' W 118°17'0 0.0
2018-Aug-17 11:26N 33°43' W 118°17'0 0.0
2018-Aug-17 10:50N 33°43' W 118°17'0 0.0
2018-Aug-17 09:38N 33°43' W 118°17'0 0.0
2018-Aug-17 09:14N 33°43' W 118°17'0 0.0
2018-Aug-17 08:50N 33°43' W 118°17'0 0.0
2018-Aug-17 08:26N 33°43' W 118°17'0 0.0
2018-Aug-17 06:08N 33°43' W 118°17'0 0.0
2018-Aug-17 05:38N 33°43' W 118°17'0 0.0
2018-Aug-17 05:20N 33°43' W 118°17'0 0.0
2018-Aug-16 23:59N 33°43' W 118°17'0 0.0
2018-Aug-16 23:17N 33°43' W 118°17'0 0.0
2018-Aug-16 22:56N 33°43' W 118°17'0 0.0
2018-Aug-16 22:29N 33°43' W 118°17'0 0.0
2018-Aug-16 21:32N 33°43' W 118°17'0 0.0
2018-Aug-16 21:20N 33°43' W 118°17'0 0.0
2018-Aug-16 20:56N 33°43' W 118°17'0 0.0
2018-Aug-16 19:26N 33°43' W 118°17'0 0.0
2018-Aug-16 18:59N 33°43' W 118°17'0 0.0
2018-Aug-16 18:26N 33°43' W 118°17'0 0.0
2018-Aug-16 17:59N 33°43' W 118°17'0 0.0
2018-Aug-16 17:29N 33°43' W 118°17'0 0.0
2018-Aug-16 16:56N 33°43' W 118°17'0 0.0
2018-Aug-16 16:29N 33°43' W 118°17'0 0.0
2018-Aug-16 15:59N 33°43' W 118°17'0 0.0
2018-Aug-16 15:29N 33°43' W 118°17'0 0.0
2018-Aug-16 14:53N 33°43' W 118°17'0 0.0
2018-Aug-16 14:20N 33°43' W 118°17'0 0.0
2018-Aug-16 13:50N 33°43' W 118°17'0 0.0
2018-Aug-16 12:44N 33°43' W 118°17'0 0.0
2018-Aug-16 11:41N 33°43' W 118°17'0 0.0
2018-Aug-16 10:32N 33°43' W 118°17'0 0.1
2018-Aug-16 10:29N 33°43' W 118°17'0 0.0
2018-Aug-16 09:20N 33°43' W 118°17'0 0.0
2018-Aug-16 08:56N 33°43' W 118°17'0 0.0
2018-Aug-16 08:20N 33°43' W 118°17'0 0.0
2018-Aug-16 07:59N 33°43' W 118°17'0 0.0
2018-Aug-16 07:29N 33°43' W 118°17'0 0.0
2018-Aug-16 06:59N 33°43' W 118°17'0 0.0
2018-Aug-16 06:26N 33°43' W 118°17'0 0.0
2018-Aug-16 05:44N 33°43' W 118°17'0 0.0
2018-Aug-16 05:23N 33°43' W 118°17'0 0.0
2018-Aug-16 04:50N 33°43' W 118°17'0 0.0
2018-Aug-16 04:26N 33°43' W 118°17'0 0.0
2018-Aug-16 03:56N 33°43' W 118°17'0 0.0
2018-Aug-16 03:11N 33°43' W 118°17'0 0.0
2018-Aug-16 02:59N 33°43' W 118°17'0 0.0
2018-Aug-16 00:35N 33°43' W 118°17'0 0.0
2018-Aug-16 00:29N 33°43' W 118°17'0 0.0
2018-Aug-15 23:59N 33°43' W 118°17'0 0.0
2018-Aug-15 23:14N 33°43' W 118°17'0 0.0
2018-Aug-15 22:53N 33°43' W 118°17'0 0.0
2018-Aug-15 22:26N 33°43' W 118°17'0 0.0
2018-Aug-15 21:44N 33°43' W 118°17'0 0.0
2018-Aug-15 21:23N 33°43' W 118°17'0 0.0
2018-Aug-15 20:56N 33°43' W 118°17'0 0.0
2018-Aug-15 20:26N 33°43' W 118°17'0 0.0
2018-Aug-15 19:56N 33°43' W 118°17'0 0.0
2018-Aug-15 18:56N 33°43' W 118°17'0 0.0
2018-Aug-15 17:26N 33°43' W 118°17'0 0.0
2018-Aug-15 16:44N 33°43' W 118°17'0 0.0
2018-Aug-15 16:26N 33°43' W 118°17'0 0.0
2018-Aug-15 15:50N 33°43' W 118°17'0 0.0
2018-Aug-15 15:26N 33°43' W 118°17'0 0.0
2018-Aug-15 14:56N 33°43' W 118°17'0 0.0
2018-Aug-15 07:44N 33°43' W 118°17'0 0.0
2018-Aug-15 03:08N 33°43' W 118°17'0 0.0
2018-Aug-15 02:38N 33°43' W 118°17'0 0.0
2018-Aug-15 00:32N 33°43' W 118°17'0 0.0
2018-Aug-15 00:26N 33°43' W 118°17'0 0.0
2018-Aug-14 23:50N 33°43' W 118°17'0 0.0
2018-Aug-14 23:29N 33°43' W 118°17'0 0.0
2018-Aug-14 22:44N 33°43' W 118°17'0 0.0
2018-Aug-14 22:26N 33°43' W 118°17'0 0.0
2018-Aug-14 21:50N 33°43' W 118°17'0 0.0
2018-Aug-14 21:08N 33°43' W 118°17'0 0.0
2018-Aug-14 20:56N 33°43' W 118°17'0 0.0
2018-Aug-14 20:26N 33°43' W 118°17'0 0.0
2018-Aug-14 19:08N 33°43' W 118°17'0 0.0
2018-Aug-14 18:56N 33°43' W 118°17'0 0.0
2018-Aug-14 17:02N 33°43' W 118°17'0 0.0
2018-Aug-14 14:56N 33°43' W 118°17'0 0.0
2018-Aug-14 14:11N 33°43' W 118°17'0 0.0
2018-Aug-14 13:59N 33°43' W 118°17'0 0.0
2018-Aug-14 12:38N 33°43' W 118°17'0 0.0
2018-Aug-14 12:29N 33°43' W 118°17'0 0.0
2018-Aug-14 11:41N 33°43' W 118°17'0 0.0
2018-Aug-14 11:20N 33°43' W 118°17'0 0.0
2018-Aug-14 10:56N 33°43' W 118°17'0 0.0
2018-Aug-14 10:20N 33°43' W 118°17'0 0.0
2018-Aug-14 09:14N 33°43' W 118°17'0 0.0
2018-Aug-14 08:56N 33°43' W 118°17'0 0.0
2018-Aug-14 08:20N 33°43' W 118°17'0 0.0
2018-Aug-14 07:56N 33°43' W 118°17'0 0.0
2018-Aug-14 07:11N 33°43' W 118°17'0 0.0
2018-Aug-14 06:59N 33°43' W 118°17'0 0.0
2018-Aug-14 05:35N 33°43' W 118°17'0 0.0
2018-Aug-14 05:26N 33°43' W 118°17'0 0.0
2018-Aug-14 04:17N 33°43' W 118°17'0 0.0
2018-Aug-14 03:59N 33°43' W 118°17'0 0.0
2018-Aug-14 03:26N 33°43' W 118°17'0 0.0
2018-Aug-14 02:56N 33°43' W 118°17'0 0.0
2018-Aug-14 02:20N 33°43' W 118°17'0 0.0
2018-Aug-14 01:53N 33°43' W 118°17'0 0.0
2018-Aug-14 01:26N 33°43' W 118°17'0 0.0
2018-Aug-14 00:59N 33°43' W 118°17'0 0.0
2018-Aug-14 00:29N 33°43' W 118°17'0 0.0
2018-Aug-13 23:59N 33°43' W 118°17'0 0.0
2018-Aug-13 23:29N 33°43' W 118°17'0 0.0
2018-Aug-13 22:59N 33°43' W 118°17'0 0.0
2018-Aug-13 22:14N 33°43' W 118°17'0 0.0
2018-Aug-13 20:38N 33°43' W 118°17'0 0.0
2018-Aug-13 20:29N 33°43' W 118°17'0 0.0
2018-Aug-13 19:47N 33°43' W 118°17'0 0.0
2018-Aug-13 19:17N 33°43' W 118°17'0 0.0
2018-Aug-13 18:59N 33°43' W 118°17'0 0.0
2018-Aug-13 18:26N 33°43' W 118°17'0 0.0
2018-Aug-13 17:47N 33°43' W 118°17'0 0.0
2018-Aug-13 17:29N 33°43' W 118°17'0 0.0
2018-Aug-13 16:56N 33°43' W 118°17'0 0.0
2018-Aug-13 15:38N 33°43' W 118°17'0 0.0
2018-Aug-13 14:17N 33°43' W 118°17'0 0.0
2018-Aug-13 13:59N 33°43' W 118°17'0 0.0
2018-Aug-13 12:56N 33°43' W 118°17'0 0.0
2018-Aug-13 12:23N 33°43' W 118°17'0 0.0
2018-Aug-13 11:59N 33°43' W 118°17'0 0.0
2018-Aug-13 10:11N 33°43' W 118°17'0 0.0
2018-Aug-13 09:59N 33°43' W 118°17'0 0.0
2018-Aug-13 09:20N 33°43' W 118°17'0 0.0
2018-Aug-13 08:53N 33°43' W 118°17'0 0.0
2018-Aug-13 08:26N 33°43' W 118°17'0 0.0
2018-Aug-13 07:53N 33°43' W 118°17'0 0.0
2018-Aug-13 07:29N 33°43' W 118°17'0 0.0
2018-Aug-13 06:59N 33°43' W 118°17'0 0.0
2018-Aug-13 06:20N 33°43' W 118°17'0 0.0
2018-Aug-13 05:50N 33°43' W 118°17'0 0.0
2018-Aug-13 05:29N 33°43' W 118°17'0 0.0
2018-Aug-13 04:59N 33°43' W 118°17'0 0.0
2018-Aug-13 04:29N 33°43' W 118°17'0 0.0
2018-Aug-13 03:59N 33°43' W 118°17'0 0.0
2018-Aug-13 03:29N 33°43' W 118°17'0 0.0
2018-Aug-13 02:59N 33°43' W 118°17'0 0.0
2018-Aug-13 02:29N 33°43' W 118°17'0 0.0
2018-Aug-13 01:59N 33°43' W 118°17'0 0.0
2018-Aug-13 01:23N 33°43' W 118°17'0 0.0
2018-Aug-13 00:50N 33°43' W 118°17'0 0.0
2018-Aug-13 00:26N 33°43' W 118°17'0 0.0
2018-Aug-12 23:47N 33°43' W 118°17'0 0.0
2018-Aug-12 23:29N 33°43' W 118°17'0 0.0
2018-Aug-12 22:53N 33°43' W 118°17'0 0.0
2018-Aug-12 22:29N 33°43' W 118°17'0 0.0
2018-Aug-12 21:59N 33°43' W 118°17'0 0.0
2018-Aug-12 21:26N 33°43' W 118°17'0 0.0
2018-Aug-12 20:59N 33°43' W 118°17'0 0.0
2018-Aug-12 19:20N 33°43' W 118°17'0 0.0
2018-Aug-12 18:56N 33°43' W 118°17'0 0.0
2018-Aug-12 18:26N 33°43' W 118°17'0 0.0
2018-Aug-12 01:26N 33°43' W 118°17'0 0.0
2018-Aug-12 01:00N 33°43' W 118°17'2 3.0
2018-Aug-12 00:29N 33°42' W 118°16'2 2.8
2018-Aug-11 23:56N 33°42' W 118°18'0 0.0
2018-Aug-11 23:11N 33°42' W 118°18'0 0.0
2018-Aug-11 22:51N 33°42' W 118°18'0 0.0
2018-Aug-11 22:18N 33°42' W 118°18'0 0.0
2018-Aug-11 21:56N 33°42' W 118°18'14 4.3
2018-Aug-11 18:36N 33°41' W 118°35'2 6.3
2018-Aug-11 18:20N 33°43' W 118°34'9 9.5
2018-Aug-11 17:25N 33°40' W 118°24'4 8.9
2018-Aug-11 16:57N 33°41' W 118°19'3 7.1
2018-Aug-11 16:30N 33°42' W 118°15'2 1.4
2018-Aug-11 15:16N 33°43' W 118°17'0 0.0
2018-Aug-11 11:04N 33°43' W 118°17'0 0.0
2018-Aug-11 09:28N 33°43' W 118°17'0 0.0
2018-Aug-11 08:37N 33°43' W 118°17'0 0.0
2018-Aug-11 08:25N 33°43' W 118°17'0 0.0
2018-Aug-11 07:40N 33°43' W 118°17'0 0.0
2018-Aug-11 07:28N 33°43' W 118°17'0 0.0
2018-Aug-11 05:13N 33°43' W 118°17'0 0.0
2018-Aug-11 04:49N 33°43' W 118°17'0 0.0
2018-Aug-11 04:28N 33°43' W 118°17'0 0.0
2018-Aug-11 03:19N 33°43' W 118°17'0 0.0
2018-Aug-11 02:49N 33°43' W 118°17'0 0.0
2018-Aug-11 01:49N 33°43' W 118°17'0 0.0
2018-Aug-11 01:28N 33°43' W 118°17'0 0.0
2018-Aug-11 00:52N 33°43' W 118°17'0 0.0
2018-Aug-11 00:28N 33°43' W 118°17'0 0.0
2018-Aug-10 23:07N 33°43' W 118°17'0 0.0
2018-Aug-10 22:46N 33°43' W 118°17'0 0.0
2018-Aug-10 22:13N 33°43' W 118°17'0 0.0
2018-Aug-10 21:55N 33°43' W 118°17'0 0.0
2018-Aug-10 21:28N 33°43' W 118°17'0 0.0
2018-Aug-10 20:55N 33°43' W 118°17'0 0.0
2018-Aug-10 20:25N 33°43' W 118°17'0 0.0
2018-Aug-10 19:43N 33°43' W 118°17'0 0.0
2018-Aug-10 19:22N 33°43' W 118°17'0 0.0
2018-Aug-10 17:55N 33°43' W 118°17'0 0.0
2018-Aug-10 17:22N 33°43' W 118°17'0 0.0
2018-Aug-10 16:52N 33°43' W 118°17'0 0.0
2018-Aug-10 16:28N 33°43' W 118°17'0 0.0
2018-Aug-10 15:22N 33°43' W 118°17'0 0.0
2018-Aug-10 14:40N 33°43' W 118°17'0 0.0
2018-Aug-10 14:10N 33°43' W 118°17'0 0.0
2018-Aug-10 13:55N 33°43' W 118°17'0 0.0
2018-Aug-10 13:28N 33°43' W 118°17'0 0.0
2018-Aug-10 10:55N 33°43' W 118°17'0 0.0
2018-Aug-10 10:28N 33°43' W 118°17'0 0.0
2018-Aug-10 09:58N 33°43' W 118°17'0 0.0
2018-Aug-10 09:28N 33°43' W 118°17'0 0.0
2018-Aug-10 08:58N 33°43' W 118°17'0 0.0
2018-Aug-10 08:25N 33°43' W 118°17'0 0.0
2018-Aug-10 07:55N 33°43' W 118°17'0 0.0
2018-Aug-10 07:19N 33°43' W 118°17'0 0.0
2018-Aug-10 06:55N 33°43' W 118°17'0 0.0
2018-Aug-10 06:28N 33°43' W 118°17'0 0.0
2018-Aug-10 05:52N 33°43' W 118°17'0 0.0
2018-Aug-10 05:25N 33°43' W 118°17'0 0.0
2018-Aug-10 04:46N 33°43' W 118°17'0 0.0
2018-Aug-10 04:28N 33°43' W 118°17'0 0.0
2018-Aug-10 03:58N 33°43' W 118°17'0 0.0
2018-Aug-10 03:07N 33°43' W 118°17'0 0.0
2018-Aug-10 02:58N 33°43' W 118°17'0 0.0
2018-Aug-10 02:22N 33°43' W 118°17'0 0.0
2018-Aug-10 01:55N 33°43' W 118°17'0 0.0
2018-Aug-10 01:28N 33°43' W 118°17'0 0.0
2018-Aug-10 00:55N 33°43' W 118°17'0 0.0
2018-Aug-10 00:01N 33°43' W 118°17'0 0.0
2018-Aug-09 23:43N 33°43' W 118°17'0 0.0
2018-Aug-09 23:28N 33°43' W 118°17'0 0.0
2018-Aug-09 22:58N 33°43' W 118°17'  
Track history (hours):
 
Tides and Currents Weather Stations Pressure Air Temp Water Temp Dewpoint Dewpoint Depression Visibility Wind Speed Wind Dir Waves Ship Positions

Shelly Sue

Last reported at 2018-Aug-19 22:18 UTC. Time now 2018-Aug-19 23:13 UTC.
Position N 33°43' W 118°17'.

Length 19 m.

Type: Pleasure craft. MMSI: 338215311.

Date/timePositionNaut miles runAvg speedWind from/ knotsBaromVisibWave heightAir tempDewpointWater temp
2018-Aug-19 22:18N 33°43' W 118°17'0 0.0
2018-Aug-19 18:39N 33°43' W 118°17'0 0.0
2018-Aug-19 10:18N 33°43' W 118°17'0 0.0
2018-Aug-19 10:00N 33°43' W 118°17'0 0.0
2018-Aug-19 08:30N 33°43' W 118°17'0 0.0
2018-Aug-19 06:12N 33°43' W 118°17'0 0.0
2018-Aug-19 05:48N 33°43' W 118°17'0 0.0
2018-Aug-19 05:24N 33°43' W 118°17'0 0.0
2018-Aug-19 05:00N 33°43' W 118°17'0 0.0
2018-Aug-19 04:30N 33°43' W 118°17'0 0.0
2018-Aug-19 02:35N 33°43' W 118°17'0 1.9
2018-Aug-19 02:30N 33°43' W 118°17'3 6.3
2018-Aug-19 02:00N 33°43' W 118°13'4 8.1
2018-Aug-19 01:30N 33°42' W 118°08'4 7.6
2018-Aug-19 01:00N 33°40' W 118°04'3 7.1
2018-Aug-19 00:30N 33°37' W 118°02'2 3.3
2018-Aug-19 00:00N 33°37' W 117°60'4 8.8
2018-Aug-18 23:30N 33°35' W 117°55'4 8.2
2018-Aug-18 23:00N 33°36' W 117°60'5 7.9
2018-Aug-18 22:22N 33°37' W 118°05'4 9.6
2018-Aug-18 22:00N 33°39' W 118°09'5 9.9
2018-Aug-18 21:30N 33°39' W 118°15'3 6.5
2018-Aug-18 20:59N 33°43' W 118°15'2 0.8
2018-Aug-18 18:56N 33°43' W 118°17'0 0.0
2018-Aug-18 16:56N 33°43' W 118°17'0 0.0
2018-Aug-18 16:08N 33°43' W 118°17'0 0.0
2018-Aug-18 15:56N 33°43' W 118°17'0 0.0
2018-Aug-18 15:20N 33°43' W 118°17'0 0.0
2018-Aug-18 14:50N 33°43' W 118°17'0 0.0
2018-Aug-18 13:44N 33°43' W 118°17'0 0.0
2018-Aug-18 12:08N 33°43' W 118°17'0 0.0
2018-Aug-18 11:56N 33°43' W 118°17'0 0.0
2018-Aug-18 11:20N 33°43' W 118°17'0 0.0
2018-Aug-18 07:56N 33°43' W 118°17'0 0.0
2018-Aug-18 02:56N 33°43' W 118°17'0 0.0
2018-Aug-18 01:20N 33°43' W 118°17'0 0.0
2018-Aug-17 23:35N 33°43' W 118°17'0 0.0
2018-Aug-17 23:23N 33°43' W 118°17'0 0.0
2018-Aug-17 19:26N 33°43' W 118°17'0 0.0
2018-Aug-17 18:53N 33°43' W 118°17'0 0.0
2018-Aug-17 18:08N 33°43' W 118°17'0 0.0
2018-Aug-17 17:50N 33°43' W 118°17'0 0.0
2018-Aug-17 17:23N 33°43' W 118°17'0 0.0
2018-Aug-17 16:44N 33°43' W 118°17'0 0.0
2018-Aug-17 16:11N 33°43' W 118°17'0 0.0
2018-Aug-17 15:50N 33°43' W 118°17'0 0.0
2018-Aug-17 13:56N 33°43' W 118°17'0 0.0
2018-Aug-17 13:08N 33°43' W 118°17'0 0.0
2018-Aug-17 12:56N 33°43' W 118°17'0 0.0
2018-Aug-17 11:26N 33°43' W 118°17'0 0.0
2018-Aug-17 10:50N 33°43' W 118°17'0 0.0
2018-Aug-17 09:38N 33°43' W 118°17'0 0.0
2018-Aug-17 09:14N 33°43' W 118°17'0 0.0
2018-Aug-17 08:50N 33°43' W 118°17'0 0.0
2018-Aug-17 08:26N 33°43' W 118°17'0 0.0
2018-Aug-17 06:08N 33°43' W 118°17'0 0.0
2018-Aug-17 05:38N 33°43' W 118°17'0 0.0
2018-Aug-17 05:20N 33°43' W 118°17'0 0.0
2018-Aug-16 23:59N 33°43' W 118°17'0 0.0
2018-Aug-16 23:17N 33°43' W 118°17'0 0.0
2018-Aug-16 22:56N 33°43' W 118°17'0 0.0
2018-Aug-16 22:29N 33°43' W 118°17'0 0.0
2018-Aug-16 21:32N 33°43' W 118°17'0 0.0
2018-Aug-16 21:20N 33°43' W 118°17'0 0.0
2018-Aug-16 20:56N 33°43' W 118°17'0 0.0
2018-Aug-16 19:26N 33°43' W 118°17'0 0.0
2018-Aug-16 18:59N 33°43' W 118°17'0 0.0
2018-Aug-16 18:26N 33°43' W 118°17'0 0.0
2018-Aug-16 17:59N 33°43' W 118°17'0 0.0
2018-Aug-16 17:29N 33°43' W 118°17'0 0.0
2018-Aug-16 16:56N 33°43' W 118°17'0 0.0
2018-Aug-16 16:29N 33°43' W 118°17'0 0.0
2018-Aug-16 15:59N 33°43' W 118°17'0 0.0
2018-Aug-16 15:29N 33°43' W 118°17'0 0.0
2018-Aug-16 14:53N 33°43' W 118°17'0 0.0
2018-Aug-16 14:20N 33°43' W 118°17'0 0.0
2018-Aug-16 13:50N 33°43' W 118°17'0 0.0
2018-Aug-16 12:44N 33°43' W 118°17'0 0.0
2018-Aug-16 11:41N 33°43' W 118°17'0 0.0
2018-Aug-16 10:32N 33°43' W 118°17'0 0.1
2018-Aug-16 10:29N 33°43' W 118°17'0 0.0
2018-Aug-16 09:20N 33°43' W 118°17'0 0.0
2018-Aug-16 08:56N 33°43' W 118°17'0 0.0
2018-Aug-16 08:20N 33°43' W 118°17'0 0.0
2018-Aug-16 07:59N 33°43' W 118°17'0 0.0
2018-Aug-16 07:29N 33°43' W 118°17'0 0.0
2018-Aug-16 06:59N 33°43' W 118°17'0 0.0
2018-Aug-16 06:26N 33°43' W 118°17'0 0.0
2018-Aug-16 05:44N 33°43' W 118°17'0 0.0
2018-Aug-16 05:23N 33°43' W 118°17'0 0.0
2018-Aug-16 04:50N 33°43' W 118°17'0 0.0
2018-Aug-16 04:26N 33°43' W 118°17'0 0.0
2018-Aug-16 03:56N 33°43' W 118°17'0 0.0
2018-Aug-16 03:11N 33°43' W 118°17'0 0.0
2018-Aug-16 02:59N 33°43' W 118°17'0 0.0
2018-Aug-16 00:35N 33°43' W 118°17'0 0.0
2018-Aug-16 00:29N 33°43' W 118°17'0 0.0
2018-Aug-15 23:59N 33°43' W 118°17'0 0.0
2018-Aug-15 23:14N 33°43' W 118°17'0 0.0
2018-Aug-15 22:53N 33°43' W 118°17'0 0.0
2018-Aug-15 22:26N 33°43' W 118°17'0 0.0
2018-Aug-15 21:44N 33°43' W 118°17'0 0.0
2018-Aug-15 21:23N 33°43' W 118°17'0 0.0
2018-Aug-15 20:56N 33°43' W 118°17'0 0.0
2018-Aug-15 20:26N 33°43' W 118°17'0 0.0
2018-Aug-15 19:56N 33°43' W 118°17'0 0.0
2018-Aug-15 18:56N 33°43' W 118°17'0 0.0
2018-Aug-15 17:26N 33°43' W 118°17'0 0.0
2018-Aug-15 16:44N 33°43' W 118°17'0 0.0
2018-Aug-15 16:26N 33°43' W 118°17'0 0.0
2018-Aug-15 15:50N 33°43' W 118°17'0 0.0
2018-Aug-15 15:26N 33°43' W 118°17'0 0.0
2018-Aug-15 14:56N 33°43' W 118°17'0 0.0
2018-Aug-15 07:44N 33°43' W 118°17'0 0.0
2018-Aug-15 03:08N 33°43' W 118°17'0 0.0
2018-Aug-15 02:38N 33°43' W 118°17'0 0.0
2018-Aug-15 00:32N 33°43' W 118°17'0 0.0
2018-Aug-15 00:26N 33°43' W 118°17'0 0.0
2018-Aug-14 23:50N 33°43' W 118°17'0 0.0
2018-Aug-14 23:29N 33°43' W 118°17'0 0.0
2018-Aug-14 22:44N 33°43' W 118°17'0 0.0
2018-Aug-14 22:26N 33°43' W 118°17'0 0.0
2018-Aug-14 21:50N 33°43' W 118°17'0 0.0
2018-Aug-14 21:08N 33°43' W 118°17'0 0.0
2018-Aug-14 20:56N 33°43' W 118°17'0 0.0
2018-Aug-14 20:26N 33°43' W 118°17'0 0.0
2018-Aug-14 19:08N 33°43' W 118°17'0 0.0
2018-Aug-14 18:56N 33°43' W 118°17'0 0.0
2018-Aug-14 17:02N 33°43' W 118°17'0 0.0
2018-Aug-14 14:56N 33°43' W 118°17'0 0.0
2018-Aug-14 14:11N 33°43' W 118°17'0 0.0
2018-Aug-14 13:59N 33°43' W 118°17'0 0.0
2018-Aug-14 12:38N 33°43' W 118°17'0 0.0
2018-Aug-14 12:29N 33°43' W 118°17'0 0.0
2018-Aug-14 11:41N 33°43' W 118°17'0 0.0
2018-Aug-14 11:20N 33°43' W 118°17'0 0.0
2018-Aug-14 10:56N 33°43' W 118°17'0 0.0
2018-Aug-14 10:20N 33°43' W 118°17'0 0.0
2018-Aug-14 09:14N 33°43' W 118°17'0 0.0
2018-Aug-14 08:56N 33°43' W 118°17'0 0.0
2018-Aug-14 08:20N 33°43' W 118°17'0 0.0
2018-Aug-14 07:56N 33°43' W 118°17'0 0.0
2018-Aug-14 07:11N 33°43' W 118°17'0 0.0
2018-Aug-14 06:59N 33°43' W 118°17'0 0.0
2018-Aug-14 05:35N 33°43' W 118°17'0 0.0
2018-Aug-14 05:26N 33°43' W 118°17'0 0.0
2018-Aug-14 04:17N 33°43' W 118°17'0 0.0
2018-Aug-14 03:59N 33°43' W 118°17'0 0.0
2018-Aug-14 03:26N 33°43' W 118°17'0 0.0
2018-Aug-14 02:56N 33°43' W 118°17'0 0.0
2018-Aug-14 02:20N 33°43' W 118°17'0 0.0
2018-Aug-14 01:53N 33°43' W 118°17'0 0.0
2018-Aug-14 01:26N 33°43' W 118°17'0 0.0
2018-Aug-14 00:59N 33°43' W 118°17'0 0.0
2018-Aug-14 00:29N 33°43' W 118°17'0 0.0
2018-Aug-13 23:59N 33°43' W 118°17'0 0.0
2018-Aug-13 23:29N 33°43' W 118°17'0 0.0
2018-Aug-13 22:59N 33°43' W 118°17'0 0.0
2018-Aug-13 22:14N 33°43' W 118°17'0 0.0
2018-Aug-13 20:38N 33°43' W 118°17'0 0.0
2018-Aug-13 20:29N 33°43' W 118°17'0 0.0
2018-Aug-13 19:47N 33°43' W 118°17'0 0.0
2018-Aug-13 19:17N 33°43' W 118°17'0 0.0
2018-Aug-13 18:59N 33°43' W 118°17'0 0.0
2018-Aug-13 18:26N 33°43' W 118°17'0 0.0
2018-Aug-13 17:47N 33°43' W 118°17'0 0.0
2018-Aug-13 17:29N 33°43' W 118°17'0 0.0
2018-Aug-13 16:56N 33°43' W 118°17'0 0.0
2018-Aug-13 15:38N 33°43' W 118°17'0 0.0
2018-Aug-13 14:17N 33°43' W 118°17'0 0.0
2018-Aug-13 13:59N 33°43' W 118°17'0 0.0
2018-Aug-13 12:56N 33°43' W 118°17'0 0.0
2018-Aug-13 12:23N 33°43' W 118°17'0 0.0
2018-Aug-13 11:59N 33°43' W 118°17'0 0.0
2018-Aug-13 10:11N 33°43' W 118°17'0 0.0
2018-Aug-13 09:59N 33°43' W 118°17'0 0.0
2018-Aug-13 09:20N 33°43' W 118°17'0 0.0
2018-Aug-13 08:53N 33°43' W 118°17'0 0.0
2018-Aug-13 08:26N 33°43' W 118°17'0 0.0
2018-Aug-13 07:53N 33°43' W 118°17'0 0.0
2018-Aug-13 07:29N 33°43' W 118°17'0 0.0
2018-Aug-13 06:59N 33°43' W 118°17'0 0.0
2018-Aug-13 06:20N 33°43' W 118°17'0 0.0
2018-Aug-13 05:50N 33°43' W 118°17'0 0.0
2018-Aug-13 05:29N 33°43' W 118°17'0 0.0
2018-Aug-13 04:59N 33°43' W 118°17'0 0.0
2018-Aug-13 04:29N 33°43' W 118°17'0 0.0
2018-Aug-13 03:59N 33°43' W 118°17'0 0.0
2018-Aug-13 03:29N 33°43' W 118°17'0 0.0
2018-Aug-13 02:59N 33°43' W 118°17'0 0.0
2018-Aug-13 02:29N 33°43' W 118°17'0 0.0
2018-Aug-13 01:59N 33°43' W 118°17'0 0.0
2018-Aug-13 01:23N 33°43' W 118°17'0 0.0
2018-Aug-13 00:50N 33°43' W 118°17'0 0.0
2018-Aug-13 00:26N 33°43' W 118°17'0 0.0
2018-Aug-12 23:47N 33°43' W 118°17'0 0.0
2018-Aug-12 23:29N 33°43' W 118°17'0 0.0
2018-Aug-12 22:53N 33°43' W 118°17'0 0.0
2018-Aug-12 22:29N 33°43' W 118°17'0 0.0
2018-Aug-12 21:59N 33°43' W 118°17'0 0.0
2018-Aug-12 21:26N 33°43' W 118°17'0 0.0
2018-Aug-12 20:59N 33°43' W 118°17'0 0.0
2018-Aug-12 19:20N 33°43' W 118°17'0 0.0
2018-Aug-12 18:56N 33°43' W 118°17'0 0.0
2018-Aug-12 18:26N 33°43' W 118°17'0 0.0
2018-Aug-12 01:26N 33°43' W 118°17'0 0.0
2018-Aug-12 01:00N 33°43' W 118°17'2 3.0
2018-Aug-12 00:29N 33°42' W 118°16'2 2.8
2018-Aug-11 23:56N 33°42' W 118°18'0 0.0
2018-Aug-11 23:11N 33°42' W 118°18'0 0.0
2018-Aug-11 22:51N 33°42' W 118°18'0 0.0
2018-Aug-11 22:18N 33°42' W 118°18'0 0.0
2018-Aug-11 21:56N 33°42' W 118°18'14 4.3
2018-Aug-11 18:36N 33°41' W 118°35'2 6.3
2018-Aug-11 18:20N 33°43' W 118°34'9 9.5
2018-Aug-11 17:25N 33°40' W 118°24'4 8.9
2018-Aug-11 16:57N 33°41' W 118°19'3 7.1
2018-Aug-11 16:30N 33°42' W 118°15'2 1.4
2018-Aug-11 15:16N 33°43' W 118°17'0 0.0
2018-Aug-11 11:04N 33°43' W 118°17'0 0.0
2018-Aug-11 09:28N 33°43' W 118°17'0 0.0
2018-Aug-11 08:37N 33°43' W 118°17'0 0.0
2018-Aug-11 08:25N 33°43' W 118°17'0 0.0
2018-Aug-11 07:40N 33°43' W 118°17'0 0.0
2018-Aug-11 07:28N 33°43' W 118°17'0 0.0
2018-Aug-11 05:13N 33°43' W 118°17'0 0.0
2018-Aug-11 04:49N 33°43' W 118°17'0 0.0
2018-Aug-11 04:28N 33°43' W 118°17'0 0.0
2018-Aug-11 03:19N 33°43' W 118°17'0 0.0
2018-Aug-11 02:49N 33°43' W 118°17'0 0.0
2018-Aug-11 01:49N 33°43' W 118°17'0 0.0
2018-Aug-11 01:28N 33°43' W 118°17'0 0.0
2018-Aug-11 00:52N 33°43' W 118°17'0 0.0
2018-Aug-11 00:28N 33°43' W 118°17'0 0.0
2018-Aug-10 23:07N 33°43' W 118°17'0 0.0
2018-Aug-10 22:46N 33°43' W 118°17'0 0.0
2018-Aug-10 22:13N 33°43' W 118°17'0 0.0
2018-Aug-10 21:55N 33°43' W 118°17'0 0.0
2018-Aug-10 21:28N 33°43' W 118°17'0 0.0
2018-Aug-10 20:55N 33°43' W 118°17'0 0.0
2018-Aug-10 20:25N 33°43' W 118°17'0 0.0
2018-Aug-10 19:43N 33°43' W 118°17'0 0.0
2018-Aug-10 19:22N 33°43' W 118°17'0 0.0
2018-Aug-10 17:55N 33°43' W 118°17'0 0.0
2018-Aug-10 17:22N 33°43' W 118°17'0 0.0
2018-Aug-10 16:52N 33°43' W 118°17'0 0.0
2018-Aug-10 16:28N 33°43' W 118°17'0 0.0
2018-Aug-10 15:22N 33°43' W 118°17'0 0.0
2018-Aug-10 14:40N 33°43' W 118°17'0 0.0
2018-Aug-10 14:10N 33°43' W 118°17'0 0.0
2018-Aug-10 13:55N 33°43' W 118°17'0 0.0
2018-Aug-10 13:28N 33°43' W 118°17'0 0.0
2018-Aug-10 10:55N 33°43' W 118°17'0 0.0
2018-Aug-10 10:28N 33°43' W 118°17'0 0.0
2018-Aug-10 09:58N 33°43' W 118°17'0 0.0
2018-Aug-10 09:28N 33°43' W 118°17'0 0.0
2018-Aug-10 08:58N 33°43' W 118°17'0 0.0
2018-Aug-10 08:25N 33°43' W 118°17'0 0.0
2018-Aug-10 07:55N 33°43' W 118°17'0 0.0
2018-Aug-10 07:19N 33°43' W 118°17'0 0.0
2018-Aug-10 06:55N 33°43' W 118°17'0 0.0
2018-Aug-10 06:28N 33°43' W 118°17'0 0.0
2018-Aug-10 05:52N 33°43' W 118°17'0 0.0
2018-Aug-10 05:25N 33°43' W 118°17'0 0.0
2018-Aug-10 04:46N 33°43' W 118°17'0 0.0
2018-Aug-10 04:28N 33°43' W 118°17'0 0.0
2018-Aug-10 03:58N 33°43' W 118°17'0 0.0
2018-Aug-10 03:07N 33°43' W 118°17'0 0.0
2018-Aug-10 02:58N 33°43' W 118°17'0 0.0
2018-Aug-10 02:22N 33°43' W 118°17'0 0.0
2018-Aug-10 01:55N 33°43' W 118°17'0 0.0
2018-Aug-10 01:28N 33°43' W 118°17'0 0.0
2018-Aug-10 00:55N 33°43' W 118°17'0 0.0
2018-Aug-10 00:01N 33°43' W 118°17'0 0.0
2018-Aug-09 23:43N 33°43' W 118°17'0 0.0
2018-Aug-09 23:28N 33°43' W 118°17'0 0.0
2018-Aug-09 22:58N 33°43' W 118°17'  

Dump ship's entire track history